Time;durP1;ratioP1;P1;durP2;ratioP2;P2;SDS_P1;SDS_P2;PMS_P1;PMS_P2;Temp;Humidity;BMP_temperature;BMP_pressure;BME280_temperature;BME280_humidity;BME280_pressure;Samples;Min_cycle;Max_cycle;Signal;HPM_P1;HPM_P2
2022/04/23 00:01:19;;;;;;;12.65;3.70;;;;;;;7.34;100.00;99812.38;5096981;28;20023;-50
2022/04/23 00:03:44;;;;;;;5.85;2.60;;;;;;;7.30;100.00;99804.00;5076261;28;20020;-49
2022/04/23 00:06:10;;;;;;;8.43;3.60;;;;;;;7.28;100.00;99799.91;5089333;28;20123;-50
2022/04/23 00:08:35;;;;;;;9.60;3.15;;;;;;;7.25;100.00;99803.72;5093667;28;20024;-47
2022/04/23 00:11:00;;;;;;;11.80;3.20;;;;;;;7.24;100.00;99798.66;5092486;28;20024;-49
2022/04/23 00:13:26;;;;;;;11.90;3.78;;;;;;;7.24;100.00;99798.66;5095581;28;20020;-48
2022/04/23 00:15:52;;;;;;;16.00;4.40;;;;;;;7.24;100.00;99796.03;5092620;28;20020;-50
2022/04/23 00:18:18;;;;;;;17.52;5.13;;;;;;;7.24;100.00;99793.38;5089654;28;20403;-51
2022/04/23 00:20:46;;;;;;;6.55;3.47;;;;;;;7.22;100.00;99788.28;5096460;28;20043;-51
2022/04/23 00:23:12;;;;;;;30.48;5.78;;;;;;;7.21;100.00;99782.19;5097938;28;20028;-51
2022/04/23 00:25:38;;;;;;;7.82;3.42;;;;;;;7.21;100.00;99781.38;5095339;28;20038;-49
2022/04/23 00:28:03;;;;;;;10.02;3.55;;;;;;;7.18;100.00;99779.13;5091952;28;20470;-52
2022/04/23 00:30:29;;;;;;;14.73;3.35;;;;;;;7.15;100.00;99793.50;5102181;28;20024;-51
2022/04/23 00:33:00;;;;;;;13.40;2.80;;;;;;;7.13;100.00;99787.59;5096504;28;20032;-48
2022/04/23 00:35:26;;;;;;;10.52;4.57;;;;;;;7.14;100.00;99785.75;5106714;28;20039;-50
2022/04/23 00:37:52;;;;;;;6.75;3.28;;;;;;;7.13;100.00;99784.97;5105597;28;20020;-54
2022/04/23 00:40:20;;;;;;;16.58;4.65;;;;;;;7.09;100.00;99791.59;5109989;28;20059;-51
2022/04/23 00:42:52;;;;;;;8.43;3.67;;;;;;;7.07;100.00;99788.31;5093070;28;20024;-49
2022/04/23 00:45:18;;;;;;;12.00;3.08;;;;;;;7.03;100.00;99780.97;5092409;28;20386;-51
2022/04/23 00:47:43;;;;;;;9.32;3.95;;;;;;;7.02;100.00;99776.69;5098628;28;20035;-48
2022/04/23 00:50:09;;;;;;;14.60;4.78;;;;;;;7.02;100.00;99776.69;5105269;28;20023;-47
2022/04/23 00:52:35;;;;;;;14.65;5.05;;;;;;;7.04;100.00;99785.25;5092665;28;20487;-47
2022/04/23 00:55:03;;;;;;;7.97;2.90;;;;;;;7.04;100.00;99777.34;5089454;28;20104;-48
2022/04/23 00:57:28;;;;;;;8.65;4.30;;;;;;;7.02;100.00;99779.31;5096856;28;20441;-48
2022/04/23 00:59:54;;;;;;;9.35;3.70;;;;;;;7.02;100.00;99774.06;5108397;28;20026;-49
2022/04/23 01:02:19;;;;;;;10.50;3.58;;;;;;;7.02;100.00;99769.59;5097466;28;20024;-49
2022/04/23 01:04:44;;;;;;;10.63;4.45;;;;;;;7.04;100.00;99769.44;5104945;28;20107;-47
2022/04/23 01:07:13;;;;;;;7.85;3.83;;;;;;;7.07;100.00;99777.78;5105926;28;20028;-46
2022/04/23 01:09:39;;;;;;;18.60;3.85;;;;;;;7.10;100.00;99769.50;5105030;28;20024;-48
2022/04/23 01:12:05;;;;;;;15.25;4.80;;;;;;;7.12;100.00;99762.22;5104824;28;20031;-49
2022/04/23 01:14:31;;;;;;;7.00;4.28;;;;;;;7.13;100.00;99763.06;5101768;28;20035;-48
2022/04/23 01:16:56;;;;;;;9.82;3.28;;;;;;;7.15;100.00;99758.38;5106075;28;20416;-48
2022/04/23 01:19:22;;;;;;;8.02;3.83;;;;;;;7.15;100.00;99761.88;5112100;28;20027;-48
2022/04/23 01:21:47;;;;;;;14.95;4.22;;;;;;;7.14;100.00;99757.56;5100104;28;20456;-47
2022/04/23 01:24:14;;;;;;;8.25;3.85;;;;;;;7.15;100.00;99761.03;5092680;28;20024;-48
2022/04/23 01:26:40;;;;;;;7.47;3.10;;;;;;;7.13;100.00;99753.31;5102409;28;20084;-53
2022/04/23 01:29:05;;;;;;;18.33;4.90;;;;;;;7.13;100.00;99761.22;5101363;28;20114;-51
2022/04/23 01:31:30;;;;;;;17.00;4.20;;;;;;;7.14;100.00;99754.13;5099306;28;20485;-53
2022/04/23 01:33:56;;;;;;;10.48;4.72;;;;;;;7.13;100.00;99755.16;5095033;28;20028;-48
2022/04/23 01:36:21;;;;;;;9.90;4.05;;;;;;;7.09;100.00;99756.50;5099383;28;20039;-51
2022/04/23 01:38:47;;;;;;;9.65;3.58;;;;;;;7.04;100.00;99754.41;5085374;28;20036;-51
2022/04/23 01:41:13;;;;;;;6.15;4.55;;;;;;;6.95;100.00;99745.81;5096926;28;20389;-51
2022/04/23 01:43:38;;;;;;;8.90;3.33;;;;;;;6.89;100.00;99743.09;5097671;28;20104;-51
2022/04/23 01:46:04;;;;;;;10.30;3.30;;;;;;;6.81;100.00;99751.09;5099775;28;20043;-46
2022/04/23 01:48:29;;;;;;;10.32;3.70;;;;;;;6.76;100.00;99751.66;5107262;28;20115;-48
2022/04/23 01:50:55;;;;;;;12.65;3.60;;;;;;;6.74;100.00;99758.94;5101370;28;20027;-50
2022/04/23 01:53:22;;;;;;;11.43;4.13;;;;;;;6.69;100.00;99753.41;5095039;28;20024;-52
2022/04/23 01:55:51;;;;;;;11.68;2.92;;;;;;;6.62;100.00;99755.13;5105582;28;20047;-50
2022/04/23 01:58:16;;;;;;;12.23;4.07;;;;;;;6.60;100.00;99750.03;5087277;28;20020;-47
2022/04/23 02:00:41;;;;;;;11.77;4.53;;;;;;;6.56;100.00;99740.88;5100468;28;20096;-45
2022/04/23 02:03:06;;;;;;;14.40;4.47;;;;;;;6.53;100.00;99738.59;5099208;28;20286;-50
2022/04/23 02:05:32;;;;;;;8.25;2.72;;;;;;;6.48;100.00;99740.94;5083672;28;20026;-49
2022/04/23 02:07:57;;;;;;;5.82;3.00;;;;;;;6.38;100.00;99735.97;5112213;28;20043;-47
2022/04/23 02:10:22;;;;;;;12.35;5.13;;;;;;;6.35;100.00;99739.00;5102547;28;20030;-49
2022/04/23 02:12:48;;;;;;;13.95;4.65;;;;;;;6.36;100.00;99727.44;5097675;28;20055;-49
2022/04/23 02:15:15;;;;;;;14.25;4.95;;;;;;;6.38;100.00;99730.72;5095946;28;20416;-49
2022/04/23 02:17:44;;;;;;;15.13;5.28;;;;;;;6.49;100.00;99732.88;5101938;28;20031;-46
2022/04/23 02:20:14;;;;;;;14.50;3.95;;;;;;;6.49;100.00;99724.97;5097271;28;20028;-51
2022/04/23 02:22:39;;;;;;;13.43;3.65;;;;;;;6.45;100.00;99730.78;5091632;28;20492;-49
2022/04/23 02:25:06;;;;;;;10.55;4.32;;;;;;;6.50;100.00;99725.78;5095242;28;20036;-48
2022/04/23 02:27:44;;;;;;;20.98;5.88;;;;;;;6.66;100.00;99730.03;5108258;28;20063;-48
2022/04/23 02:30:14;;;;;;;11.13;3.90;;;;;;;6.76;100.00;99723.50;5099563;28;20032;-49
2022/04/23 02:32:44;;;;;;;14.90;3.83;;;;;;;6.88;100.00;99717.75;5104292;28;20533;-51
2022/04/23 02:35:10;;;;;;;27.02;5.32;;;;;;;6.99;100.00;99717.25;5095545;28;20161;-47
2022/04/23 02:37:35;;;;;;;10.00;3.63;;;;;;;7.00;100.00;99718.91;5105126;28;20019;-45
2022/04/23 02:40:06;;;;;;;11.23;5.32;;;;;;;7.02;100.00;99719.50;5093724;28;20036;-48
2022/04/23 02:42:33;;;;;;;12.70;4.13;;;;;;;7.07;100.00;99714.50;5091157;28;20036;-52
2022/04/23 02:45:01;;;;;;;8.00;4.13;;;;;;;7.13;100.00;99705.88;5102362;28;20055;-51
2022/04/23 02:47:40;;;;;;;19.63;4.68;;;;;;;7.16;100.00;99710.75;5104738;28;20028;-47
2022/04/23 02:50:06;;;;;;;8.63;3.65;;;;;;;7.19;100.00;99707.75;5098680;28;20703;-49
2022/04/23 02:52:31;;;;;;;11.70;4.35;;;;;;;7.23;100.00;99705.56;5109513;28;20015;-50
2022/04/23 02:54:56;;;;;;;12.73;4.72;;;;;;;7.27;100.00;99711.25;5097022;28;20032;-49
2022/04/23 02:57:22;;;;;;;10.73;4.75;;;;;;;7.31;100.00;99705.44;5093684;28;20379;-51
2022/04/23 02:59:47;;;;;;;20.27;5.90;;;;;;;7.37;100.00;99706.50;5092958;28;20068;-51
2022/04/23 03:02:13;;;;;;;13.98;4.60;;;;;;;7.40;100.00;99703.47;5111989;28;20027;-51
2022/04/23 03:04:38;;;;;;;14.27;5.32;;;;;;;7.45;100.00;99701.09;5097092;28;20095;-49
2022/04/23 03:07:04;;;;;;;9.18;4.85;;;;;;;7.52;100.00;99691.41;5098668;28;20031;-48
2022/04/23 03:09:29;;;;;;;20.10;5.93;;;;;;;7.63;100.00;99688.25;5094440;28;20074;-46
2022/04/23 03:11:55;;;;;;;10.73;4.60;;;;;;;7.70;100.00;99690.94;5103770;28;20059;-47
2022/04/23 03:14:21;;;;;;;14.23;5.85;;;;;;;7.74;100.00;99680.81;5095561;28;20020;-46
2022/04/23 03:16:46;;;;;;;15.90;4.70;;;;;;;7.82;100.00;99685.94;5095270;28;20115;-47
2022/04/23 03:19:11;;;;;;;17.00;8.10;;;;;;;7.86;100.00;99692.47;5107034;28;20055;-47
2022/04/23 03:21:37;;;;;;;8.00;4.00;;;;;;;7.89;100.00;99681.53;5102221;28;20030;-51
2022/04/23 03:24:02;;;;;;;10.23;5.40;;;;;;;7.91;100.00;99684.81;5095604;28;20498;-47
2022/04/23 03:26:27;;;;;;;16.05;4.40;;;;;;;7.91;100.00;99674.25;5076322;28;20024;-50
2022/04/23 03:28:53;;;;;;;13.05;5.25;;;;;;;7.96;100.00;99676.31;5116474;28;20451;-48
2022/04/23 03:31:18;;;;;;;16.17;5.30;;;;;;;7.97;100.00;99681.38;5098910;28;20023;-49
2022/04/23 03:33:44;;;;;;;16.65;5.75;;;;;;;7.96;100.00;99666.56;5100008;28;20477;-51
2022/04/23 03:36:10;;;;;;;9.30;4.60;;;;;;;7.92;100.00;99670.59;5091790;28;20024;-50
2022/04/23 03:38:36;;;;;;;21.55;6.85;;;;;;;7.89;100.00;99678.91;5101512;28;20066;-47
2022/04/23 03:41:02;;;;;;;18.67;4.68;;;;;;;7.90;100.00;99669.97;5101919;28;20126;-48
2022/04/23 03:43:30;;;;;;;13.75;4.25;;;;;;;7.91;100.00;99676.06;5100720;28;20032;-48
2022/04/23 03:45:55;;;;;;;8.75;5.57;;;;;;;7.94;100.00;99657.19;5105128;28;20461;-50
2022/04/23 03:48:20;;;;;;;11.63;5.72;;;;;;;7.95;100.00;99659.66;5099775;28;20031;-49
2022/04/23 03:50:48;;;;;;;10.93;4.88;;;;;;;7.94;100.00;99662.47;5099841;28;20457;-50
2022/04/23 03:53:14;;;;;;;18.85;5.32;;;;;;;7.94;100.00;99662.47;5092191;28;20048;-47
2022/04/23 03:55:40;;;;;;;9.05;4.53;;;;;;;7.95;100.00;99664.94;5106028;28;20032;-49
2022/04/23 03:58:05;;;;;;;14.73;5.30;;;;;;;7.98;100.00;99653.19;5105131;28;20035;-48
2022/04/23 04:00:31;;;;;;;13.60;4.97;;;;;;;8.00;100.00;99651.13;5099316;28;20028;-49
2022/04/23 04:02:57;;;;;;;13.57;5.45;;;;;;;8.01;100.00;99652.78;5091758;28;20476;-47
2022/04/23 04:05:24;;;;;;;11.52;5.97;;;;;;;8.03;100.00;99640.22;5102143;28;20032;-51
2022/04/23 04:07:50;;;;;;;13.65;5.03;;;;;;;8.03;100.00;99643.66;5102897;28;20067;-49
2022/04/23 04:10:18;;;;;;;18.25;5.80;;;;;;;8.03;100.00;99635.75;5090527;28;20067;-48
2022/04/23 04:12:44;;;;;;;18.67;5.53;;;;;;;8.03;100.00;99633.09;5090545;28;20043;-47
2022/04/23 04:15:11;;;;;;;12.98;6.00;;;;;;;8.04;100.00;99637.34;5104003;28;20415;-49
2022/04/23 04:17:37;;;;;;;12.25;7.68;;;;;;;8.09;100.00;99627.03;5102772;28;20020;-46
2022/04/23 04:20:03;;;;;;;14.20;5.90;;;;;;;8.15;100.00;99621.97;5090136;28;20060;-46
2022/04/23 04:22:30;;;;;;;12.15;6.03;;;;;;;8.16;100.00;99636.78;5099212;28;20020;-48
2022/04/23 04:24:56;;;;;;;12.02;6.75;;;;;;;8.18;100.00;99640.88;5102437;28;20139;-47
2022/04/23 04:27:21;;;;;;;11.93;5.15;;;;;;;8.20;100.00;99635.41;5098866;28;20421;-51
2022/04/23 04:29:47;;;;;;;10.05;5.78;;;;;;;8.21;100.00;99634.38;5100225;28;20066;-49
2022/04/23 04:32:13;;;;;;;16.45;5.30;;;;;;;8.22;100.00;99636.84;5117106;28;20039;-47
2022/04/23 04:34:39;;;;;;;14.75;5.35;;;;;;;8.22;100.00;99636.84;5101412;28;20400;-48
2022/04/23 04:37:08;;;;;;;16.00;5.43;;;;;;;8.29;100.00;99640.34;5101801;28;20046;-47
2022/04/23 04:39:38;;;;;;;11.35;5.30;;;;;;;8.35;100.00;99632.63;5092473;28;20613;-49
2022/04/23 04:42:04;;;;;;;13.10;5.90;;;;;;;8.35;100.00;99630.81;5122369;28;20032;-50
2022/04/23 04:44:30;;;;;;;14.57;5.38;;;;;;;8.34;100.00;99623.91;5110609;28;20110;-51
2022/04/23 04:46:55;;;;;;;15.88;8.00;;;;;;;8.33;100.00;99626.72;5100498;28;20217;-51
2022/04/23 04:49:22;;;;;;;11.75;6.47;;;;;;;8.33;100.00;99630.19;5097707;28;20039;-51
2022/04/23 04:51:48;;;;;;;13.65;6.78;;;;;;;8.35;100.00;99617.59;5097038;28;20034;-48
2022/04/23 04:54:13;;;;;;;13.88;5.90;;;;;;;8.39;100.00;99616.22;5109217;28;20023;-53
2022/04/23 04:56:39;;;;;;;12.18;6.13;;;;;;;8.38;100.00;99606.63;5104589;28;20399;-50
2022/04/23 04:59:05;;;;;;;11.13;5.78;;;;;;;8.38;100.00;99619.84;5100196;28;20028;-52
2022/04/23 05:01:30;;;;;;;11.48;6.05;;;;;;;8.36;100.00;99619.22;5106316;28;20032;-50
2022/04/23 05:03:55;;;;;;;12.68;5.93;;;;;;;8.43;100.00;99612.16;5098775;28;20538;-52
2022/04/23 05:06:21;;;;;;;17.23;6.28;;;;;;;8.42;100.00;99612.38;5099935;28;20063;-47
2022/04/23 05:08:46;;;;;;;16.70;5.55;;;;;;;8.42;100.00;99613.19;5097933;28;20038;-52
2022/04/23 05:11:12;;;;;;;24.63;6.03;;;;;;;8.43;100.00;99612.16;5109192;28;20107;-50
2022/04/23 05:13:38;;;;;;;21.00;5.72;;;;;;;8.43;100.00;99604.25;5104735;28;20027;-50
2022/04/23 05:16:06;;;;;;;10.77;5.93;;;;;;;8.46;100.00;99609.13;5099948;28;20035;-48
2022/04/23 05:18:35;;;;;;;15.70;5.50;;;;;;;8.43;100.00;99620.09;5094456;28;20035;-47
2022/04/23 05:21:01;;;;;;;15.35;5.85;;;;;;;8.49;100.00;99615.84;5093149;28;20385;-47
2022/04/23 05:23:27;;;;;;;8.73;4.95;;;;;;;8.46;100.00;99624.97;5103165;28;20027;-47
2022/04/23 05:25:52;;;;;;;13.02;4.95;;;;;;;8.48;100.00;99617.66;5103186;28;20402;-48
2022/04/23 05:28:18;;;;;;;11.00;4.25;;;;;;;8.54;100.00;99628.47;5095906;28;20028;-48
2022/04/23 05:30:44;;;;;;;16.30;6.05;;;;;;;8.52;100.00;99640.06;5108071;28;20023;-50
2022/04/23 05:33:10;;;;;;;12.70;5.38;;;;;;;8.54;100.00;99639.03;5110584;28;20027;-48
2022/04/23 05:35:35;;;;;;;8.00;3.80;;;;;;;8.52;100.00;99637.41;5100430;28;20440;-49
2022/04/23 05:38:01;;;;;;;12.70;4.80;;;;;;;8.58;100.00;99632.34;5102700;28;20043;-48
2022/04/23 05:40:26;;;;;;;10.02;4.40;;;;;;;8.63;100.00;99630.72;5102488;28;20028;-48
2022/04/23 05:42:58;;;;;;;16.92;5.68;;;;;;;8.69;100.00;99629.13;5096538;28;20077;-49
2022/04/23 05:45:28;;;;;;;10.88;4.07;;;;;;;8.72;100.00;99636.66;5103848;28;20024;-52
2022/04/23 05:47:54;;;;;;;14.95;4.53;;;;;;;8.76;100.00;99634.44;5105758;28;20035;-48
2022/04/23 05:50:19;;;;;;;14.93;5.07;;;;;;;8.80;100.00;99639.09;5098171;28;20055;-49
2022/04/23 05:52:45;;;;;;;16.17;4.55;;;;;;;8.82;100.00;99634.44;5090333;28;20415;-50
2022/04/23 05:55:11;;;;;;;6.85;3.67;;;;;;;8.82;100.00;99641.56;5110471;28;20027;-47
2022/04/23 05:57:37;;;;;;;17.23;5.18;;;;;;;8.84;100.00;99642.19;5098656;28;20456;-49
2022/04/23 06:00:08;;;;;;;13.32;4.18;;;;;;;8.84;100.00;99648.28;5106165;28;20126;-47
2022/04/23 06:02:33;;;;;;;10.93;5.53;;;;;;;8.88;100.00;99646.88;5097250;28;20035;-55
2022/04/23 06:04:59;;;;;;;12.75;4.93;;;;;;;8.91;100.00;99646.47;5103799;28;20024;-47
2022/04/23 06:07:24;;;;;;;9.75;5.35;;;;;;;8.95;100.00;99641.56;5100288;28;20385;-54
2022/04/23 06:09:50;;;;;;;10.63;4.45;;;;;;;8.99;100.00;99634.06;5094239;28;20043;-52
2022/04/23 06:12:15;;;;;;;13.10;4.68;;;;;;;9.01;100.00;99626.72;5100347;28;20032;-51
2022/04/23 06:14:41;;;;;;;12.48;4.35;;;;;;;9.04;100.00;99626.34;5095366;28;20404;-48
2022/04/23 06:17:07;;;;;;;8.20;4.35;;;;;;;9.09;100.00;99627.38;5100813;28;20242;-50
2022/04/23 06:19:33;;;;;;;8.73;4.32;;;;;;;9.14;100.00;99632.88;5103804;28;20038;-50
2022/04/23 06:21:59;;;;;;;9.68;4.50;;;;;;;9.25;100.00;99646.50;5099157;28;20456;-51
2022/04/23 06:24:25;;;;;;;9.80;4.63;;;;;;;9.37;100.00;99632.47;5109032;28;20027;-46
2022/04/23 06:26:50;;;;;;;12.40;4.55;;;;;;;9.50;100.00;99630.81;5093799;28;20429;-50
2022/04/23 06:29:16;;;;;;;6.05;3.75;;;;;;;9.63;100.00;99630.84;5106670;28;20504;-50
2022/04/23 06:31:41;;;;;;;12.48;6.00;;;;;;;9.75;100.00;99623.06;5097778;28;20032;-47
2022/04/23 06:34:06;;;;;;;13.32;5.10;;;;;;;9.81;100.00;99632.84;5106728;28;20048;-49
2022/04/23 06:36:33;;;;;;;8.27;3.58;;;;;;;9.82;100.00;99619.38;5103494;28;20035;-48
2022/04/23 06:38:58;;;;;;;11.20;3.70;;;;;;;9.79;100.00;99613.69;5092287;28;20042;-51
2022/04/23 06:41:24;;;;;;;10.35;4.55;;;;;;;9.73;100.00;99619.81;5104505;28;20035;-51
2022/04/23 06:43:51;;;;;;;10.98;3.83;;;;;;;9.67;100.00;99621.44;5102960;28;20055;-53
2022/04/23 06:46:17;;;;;;;9.43;4.10;;;;;;;9.65;100.00;99627.97;5108859;28;20126;-49
2022/04/23 06:48:42;;;;;;;7.38;3.45;;;;;;;9.63;100.00;99622.06;5102224;28;20128;-50
2022/04/23 06:51:08;;;;;;;11.32;5.30;;;;;;;9.59;100.00;99624.31;5105591;28;20047;-52
2022/04/23 06:53:33;;;;;;;6.80;3.65;;;;;;;9.58;100.00;99628.00;5091104;28;20026;-51
2022/04/23 06:55:59;;;;;;;8.70;4.28;;;;;;;9.55;100.00;99629.22;5109805;28;20046;-47
2022/04/23 06:58:24;;;;;;;11.82;4.78;;;;;;;9.53;100.00;99633.91;5101834;28;20028;-50
2022/04/23 07:00:49;;;;;;;10.50;5.10;;;;;;;9.53;100.00;99630.44;5104344;28;20551;-47
2022/04/23 07:03:15;;;;;;;5.30;3.72;;;;;;;9.57;100.00;99629.00;5101974;28;20131;-51
2022/04/23 07:05:40;;;;;;;6.07;3.50;;;;;;;9.65;100.00;99627.97;5085926;28;20103;-47
2022/04/23 07:08:05;;;;;;;8.02;4.65;;;;;;;9.72;100.00;99621.66;5105893;28;20142;-54
2022/04/23 07:10:32;;;;;;;11.55;4.22;;;;;;;9.80;100.00;99618.78;5099611;28;20031;-47
2022/04/23 07:12:58;;;;;;;7.65;4.57;;;;;;;9.84;100.00;99635.06;5097283;28;20118;-50
2022/04/23 07:15:25;;;;;;;7.22;4.20;;;;;;;9.88;100.00;99632.81;5105651;28;20031;-46
2022/04/23 07:17:51;;;;;;;12.30;4.60;;;;;;;9.90;100.00;99623.66;5098629;28;20046;-51
2022/04/23 07:20:18;;;;;;;7.53;4.22;;;;;;;9.99;100.00;99626.88;5101495;28;20035;-53
2022/04/23 07:25:28;;;;;;;8.05;4.72;;;;;;;10.30;100.00;99622.72;5106562;28;20042;-46
2022/04/23 07:27:54;;;;;;;16.80;6.50;;;;;;;10.38;100.00;99606.63;5108281;28;20477;-47
2022/04/23 07:30:19;;;;;;;10.63;4.78;;;;;;;10.43;100.00;99612.09;5102119;28;20038;-53
2022/04/23 07:32:45;;;;;;;15.75;4.25;;;;;;;10.48;100.00;99609.63;5099719;28;20126;-52
2022/04/23 07:37:54;;;;;;;9.32;4.15;;;;;;;10.71;100.00;99611.72;5103084;28;20043;-46
2022/04/23 07:40:19;;;;;;;9.60;6.15;;;;;;;10.82;100.00;99616.38;5099341;28;20027;-46
2022/04/23 07:42:45;;;;;;;10.52;5.30;;;;;;;10.84;100.00;99602.88;5104027;28;20035;-48
2022/04/23 07:45:10;;;;;;;11.75;5.40;;;;;;;10.80;100.00;99612.31;5100303;28;20067;-49
2022/04/23 07:47:36;;;;;;;11.27;5.60;;;;;;;10.76;100.00;99606.59;5104447;28;20056;-47
2022/04/23 07:50:01;;;;;;;9.88;5.95;;;;;;;10.72;100.00;99607.25;5096058;28;20484;-53
2022/04/23 07:52:27;;;;;;;12.77;5.10;;;;;;;10.77;100.00;99618.84;5093319;28;20076;-47
2022/04/23 07:54:52;;;;;;;13.25;6.03;;;;;;;10.83;100.00;99615.34;5104367;28;20059;-47
2022/04/23 07:57:22;;;;;;;10.45;6.22;;;;;;;10.88;100.00;99612.84;5101887;28;20046;-48
2022/04/23 07:59:47;;;;;;;12.02;6.43;;;;;;;10.89;100.00;99613.66;5100998;28;20032;-50
2022/04/23 08:02:12;;;;;;;10.35;5.15;;;;;;;10.91;100.00;99622.22;5103565;28;20039;-52
2022/04/23 08:04:38;;;;;;;10.60;6.57;;;;;;;10.98;100.00;99620.34;5102800;28;20031;-51
2022/04/23 08:07:04;;;;;;;16.95;6.68;;;;;;;11.04;100.00;99611.53;5103726;28;20096;-49
2022/04/23 08:09:29;;;;;;;7.68;5.40;;;;;;;11.08;100.00;99609.28;5099855;28;20032;-52
2022/04/23 08:11:55;;;;;;;16.63;6.50;;;;;;;11.18;100.00;99606.94;5103248;28;20084;-49
2022/04/23 08:14:20;;;;;;;13.45;5.85;;;;;;;11.26;100.00;99608.53;5092273;28;20023;-47
2022/04/23 08:16:48;;;;;;;11.65;4.97;;;;;;;11.34;100.00;99600.28;5100998;28;20381;-47
2022/04/23 08:19:14;;;;;;;7.07;5.40;;;;;;;11.38;100.00;99596.16;5094254;28;20330;-47
2022/04/23 08:21:39;;;;;;;7.43;4.82;;;;;;;11.54;100.00;99602.78;5103764;28;20036;-47
2022/04/23 08:24:05;;;;;;;11.30;5.22;;;;;;;11.76;100.00;99587.22;5101742;28;20035;-52
2022/04/23 08:26:30;;;;;;;11.25;6.88;;;;;;;11.83;100.00;99593.28;5102826;28;20548;-45
2022/04/23 08:31:39;;;;;;;8.80;6.47;;;;;;;11.85;100.00;99580.59;5096933;28;20058;-48
2022/04/23 08:34:05;;;;;;;14.57;6.82;;;;;;;11.88;100.00;99588.16;5104536;28;20036;-47
2022/04/23 08:36:36;;;;;;;9.20;7.07;;;;;;;11.89;100.00;99584.44;5101264;28;20035;-49
2022/04/23 08:39:06;;;;;;;15.10;6.60;;;;;;;11.91;100.00;99584.25;5105865;28;20077;-52
2022/04/23 08:41:34;;;;;;;14.80;7.20;;;;;;;11.89;100.00;99586.28;5079697;28;20522;-47
2022/04/23 08:44:06;;;;;;;13.77;6.93;;;;;;;12.00;100.00;99586.38;5100750;28;20107;-48
2022/04/23 08:46:37;;;;;;;10.10;6.35;;;;;;;12.15;100.00;99577.22;5096232;28;20056;-47
2022/04/23 08:49:10;;;;;;;8.48;6.30;;;;;;;12.33;100.00;99577.19;5108015;28;20058;-51
2022/04/23 08:51:37;;;;;;;14.48;6.40;;;;;;;12.53;100.00;99586.75;5088974;28;20036;-48
2022/04/23 08:54:10;;;;;;;11.38;6.68;;;;;;;12.48;100.00;99578.63;5104237;28;20063;-48
2022/04/23 08:56:38;;;;;;;13.80;6.18;;;;;;;12.48;100.00;99583.94;5099997;28;20031;-48
2022/04/23 08:59:06;;;;;;;12.10;5.97;;;;;;;12.63;100.00;99584.38;5097145;28;20025;-45
2022/04/23 09:01:32;;;;;;;10.43;6.53;;;;;;;12.75;100.00;99593.19;5093763;28;20713;-48
2022/04/23 09:03:59;;;;;;;12.10;6.05;;;;;;;12.77;100.00;99587.63;5098801;28;20039;-50
2022/04/23 09:06:34;;;;;;;7.35;6.32;;;;;;;12.87;100.00;99602.00;5103852;28;20549;-45
2022/04/23 09:09:20;;;;;;;7.88;6.00;;;;;;;13.05;100.00;99590.47;5097757;28;20081;-51
2022/04/23 09:11:56;;;;;;;14.82;5.97;;;;;;;13.41;100.00;99595.88;5096258;28;20027;-49
2022/04/23 09:14:22;;;;;;;9.65;6.63;;;;;;;13.43;100.00;99593.81;5086544;28;20031;-49
2022/04/23 09:25:13;;;;;;;11.85;6.10;;;;;;;13.77;100.00;99596.69;5102376;28;20062;-46
2022/04/23 09:27:41;;;;;;;10.50;7.07;;;;;;;13.89;100.00;99597.50;5090568;28;20088;-46
2022/04/23 09:30:08;;;;;;;16.67;7.05;;;;;;;14.22;100.00;99598.69;5105304;28;20443;-44
2022/04/23 09:32:34;;;;;;;12.05;7.00;;;;;;;14.36;100.00;99594.69;5109589;28;20110;-50
2022/04/23 09:35:12;;;;;;;10.38;6.85;;;;;;;14.14;100.00;99600.66;5106416;28;20024;-46
2022/04/23 09:40:26;;;;;;;11.98;8.10;;;;;;;13.74;100.00;99612.09;5098488;28;20488;-46
2022/04/23 09:43:31;;;;;;;12.35;8.02;;;;;;;13.78;100.00;99608.94;5098327;28;20031;-50
2022/04/23 09:46:03;;;;;;;7.25;5.80;;;;;;;14.10;100.00;99612.84;5072262;28;20880;-46
2022/04/23 09:48:30;;;;;;;12.27;7.00;;;;;;;14.53;100.00;99606.28;5100146;28;20020;-48
2022/04/23 09:50:56;;;;;;;11.45;7.32;;;;;;;14.81;100.00;99610.75;5094110;28;20028;-50
2022/04/23 09:53:22;;;;;;;11.10;7.80;;;;;;;14.65;100.00;99605.41;5092403;28;20157;-45
2022/04/23 09:55:51;;;;;;;13.25;7.72;;;;;;;14.68;100.00;99612.91;5100077;28;20123;-48
2022/04/23 09:58:17;;;;;;;15.40;9.82;;;;;;;14.65;100.00;99610.75;5095484;28;20020;-46
2022/04/23 10:00:47;;;;;;;14.60;7.78;;;;;;;14.62;100.00;99609.34;5103301;28;20039;-46
2022/04/23 10:03:13;;;;;;;11.40;6.85;;;;;;;14.70;100.00;99605.50;5103989;28;20039;-48
2022/04/23 10:05:49;;;;;;;15.10;8.18;;;;;;;14.96;100.00;99609.41;5093943;28;20030;-47
2022/04/23 10:08:22;;;;;;;20.55;11.18;;;;;;;15.09;100.00;99605.63;5099770;28;20039;-48
2022/04/23 10:11:03;;;;;;;14.40;10.82;;;;;;;15.19;100.00;99606.59;5088545;28;20036;-53
2022/04/23 10:13:30;;;;;;;11.00;9.75;;;;;;;15.14;100.00;99603.84;5091987;28;20119;-50
2022/04/23 10:15:57;;;;;;;14.93;10.80;;;;;;;14.80;100.00;99595.81;5099318;28;20031;-51
2022/04/23 10:18:23;;;;;;;19.30;10.68;;;;;;;14.47;100.00;99601.03;5099082;28;20483;-48
2022/04/23 10:20:55;;;;;;;11.45;9.50;;;;;;;14.28;100.00;99600.41;5098466;28;20055;-45
2022/04/23 10:23:54;;;;;;;15.25;9.98;;;;;;;14.30;100.00;99595.63;5090856;28;20131;-45
2022/04/23 10:26:35;;;;;;;13.02;10.02;;;;;;;14.57;100.00;99580.72;5092081;28;20102;-55
2022/04/23 10:29:11;;;;;;;15.65;9.55;;;;;;;14.33;100.00;99576.50;5093513;28;20032;-51
2022/04/23 10:31:37;;;;;;;11.45;9.48;;;;;;;14.24;100.00;99588.59;5089349;28;20027;-49
2022/04/23 10:34:03;;;;;;;14.20;8.60;;;;;;;14.47;100.00;99582.38;5094966;28;20493;-50
2022/04/23 10:36:29;;;;;;;11.35;8.00;;;;;;;14.85;100.00;99586.28;5094766;28;20028;-53
2022/04/23 10:39:21;;;;;;;10.48;8.63;;;;;;;14.88;100.00;99583.13;5080229;28;20427;-51
2022/04/23 10:41:49;;;;;;;13.55;8.05;;;;;;;15.02;100.00;99609.28;5060663;28;20071;-52
2022/04/23 10:44:18;;;;;;;14.63;9.80;;;;;;;15.10;100.00;99588.56;5097252;28;20063;-51
2022/04/23 10:46:43;;;;;;;14.68;8.40;;;;;;;15.17;100.00;99607.91;5090195;28;20031;-51
2022/04/23 10:49:22;;;;;;;15.63;8.35;;;;;;;15.35;100.00;99604.97;5088436;28;20028;-48
2022/04/23 10:51:52;;;;;;;13.68;10.10;;;;;;;15.27;100.00;99584.81;5088825;28;20379;-50
2022/04/23 10:54:21;;;;;;;15.05;10.38;;;;;;;15.21;100.00;99595.69;5082243;28;20051;-50
2022/04/23 10:56:53;;;;;;;13.57;9.90;;;;;;;15.14;100.00;99592.38;5078108;28;20031;-50
2022/04/23 10:59:48;;;;;;;14.73;9.82;;;;;;;14.74;100.00;99595.94;5082749;28;20146;-50
2022/04/23 11:02:29;;;;;;;15.10;10.85;;;;;;;14.65;100.00;99597.41;5083045;28;20035;-48
2022/04/23 11:13:31;;;;;;;8.02;6.68;;;;;;;15.49;100.00;99587.56;5080466;28;20043;-50
2022/04/23 11:16:11;;;;;;;13.65;8.35;;;;;;;15.58;100.00;99584.47;5066508;28;20153;-47
2022/04/23 11:18:38;;;;;;;10.23;8.10;;;;;;;15.38;100.00;99577.78;5072860;28;20132;-52
2022/04/23 11:21:10;;;;;;;8.48;6.70;;;;;;;15.21;100.00;99577.00;5085757;28;20019;-47
2022/04/23 11:23:37;;;;;;;13.55;7.65;;;;;;;15.50;100.00;99575.03;5089315;28;20023;-51
2022/04/23 11:26:03;;;;;;;15.25;8.23;;;;;;;15.94;100.00;99560.94;5086185;28;20036;-62
2022/04/23 11:28:29;;;;;;;7.20;6.45;;;;;;;15.89;100.00;99559.81;5088853;28;20039;-50
2022/04/23 11:30:54;;;;;;;7.60;5.75;;;;;;;15.72;100.00;99567.09;5072328;28;20167;-49
2022/04/23 11:33:19;;;;;;;13.35;7.38;;;;;;;15.85;100.00;99573.91;5083327;28;20047;-56
2022/04/23 11:35:45;;;;;;;7.25;5.75;;;;;;;16.05;100.00;99563.47;5090949;28;20060;-52
2022/04/23 11:38:21;;;;;;;8.05;6.35;;;;;;;16.46;100.00;99574.63;5097898;28;20054;-50
2022/04/23 11:40:46;;;;;;;8.60;6.82;;;;;;;16.62;100.00;99567.56;5097099;28;20035;-49
2022/04/23 11:43:26;;;;;;;10.05;6.60;;;;;;;16.31;100.00;99577.94;5094265;28;20032;-54
2022/04/23 11:45:57;;;;;;;8.82;5.88;;;;;;;15.88;100.00;99576.91;5091840;28;20024;-50
2022/04/23 11:48:23;;;;;;;7.50;5.70;;;;;;;16.00;100.00;99573.31;5094631;28;20048;-52
2022/04/23 11:50:48;;;;;;;5.95;4.90;;;;;;;16.23;100.00;99562.34;5099822;28;20057;-50
2022/04/23 11:53:14;;;;;;;9.05;5.68;;;;;;;16.61;100.00;99559.81;5093053;28;20468;-47